Time;durP1;ratioP1;P1;durP2;ratioP2;P2;SDS_P1;SDS_P2;PMS_P1;PMS_P2;Temp;Humidity;BMP_temperature;BMP_pressure;BME280_temperature;BME280_humidity;BME280_pressure;Samples;Min_cycle;Max_cycle;Signal;HPM_P1;HPM_P2
2021/07/29 00:00:25;;;;;;;1.70;1.47;;;15.10;75.10;;;;;;2088150;28;20169;-66
2021/07/29 00:01:26;;;;;;;17.55;1.88;;;14.70;75.80;;;;;;2088295;28;20190;-66
2021/07/29 00:02:27;;;;;;;3.23;1.53;;;14.50;77.20;;;;;;2088353;28;20169;-66
2021/07/29 00:03:27;;;;;;;2.67;1.50;;;14.20;78.40;;;;;;2087923;28;20177;-66
2021/07/29 00:04:28;;;;;;;1.30;1.20;;;13.90;79.60;;;;;;2088406;28;20173;-66
2021/07/29 00:05:30;;;;;;;1.07;1.03;;;13.70;81.00;;;;;;2088786;28;20672;-68
2021/07/29 00:06:31;;;;;;;2.00;1.40;;;13.50;81.60;;;;;;2088799;28;20532;-70
2021/07/29 00:07:32;;;;;;;1.83;1.20;;;13.30;82.00;;;;;;2088619;28;20187;-69
2021/07/29 00:08:33;;;;;;;0.77;0.77;;;13.30;82.20;;;;;;2089415;28;20185;-70
2021/07/29 00:09:33;;;;;;;1.93;1.43;;;13.20;82.40;;;;;;2088775;28;20183;-69
2021/07/29 00:10:34;;;;;;;1.30;1.20;;;13.10;82.80;;;;;;2079238;28;20518;-65
2021/07/29 00:11:35;;;;;;;2.97;1.20;;;13.00;83.10;;;;;;2079890;28;20284;-65
2021/07/29 00:12:36;;;;;;;1.55;1.45;;;12.90;83.30;;;;;;2087600;28;20251;-66
2021/07/29 00:13:38;;;;;;;1.37;1.27;;;12.90;83.60;;;;;;2087918;28;20666;-66
2021/07/29 00:14:39;;;;;;;1.38;1.25;;;12.80;83.70;;;;;;2080138;28;20582;-66
2021/07/29 00:15:39;;;;;;;1.20;1.10;;;12.80;84.00;;;;;;2079696;28;20268;-65
2021/07/29 00:16:45;;;;;;;1.40;1.30;;;12.70;84.20;;;;;;2087379;28;20809;-65
2021/07/29 00:19:03;;;;;;;1.83;1.15;;;12.60;85.10;;;;;;2079242;28;20177;-65
2021/07/29 00:20:06;;;;;;;1.30;1.20;;;12.60;85.30;;;;;;2079541;28;20203;-64
2021/07/29 00:21:07;;;;;;;2.53;1.08;;;12.50;85.40;;;;;;2079703;28;20201;-64
2021/07/29 00:22:07;;;;;;;1.43;1.30;;;12.50;85.60;;;;;;2079411;28;20173;-65
2021/07/29 00:23:08;;;;;;;1.13;1.07;;;12.40;85.80;;;;;;2079175;28;20204;-65
2021/07/29 00:24:10;;;;;;;2.90;1.63;;;12.40;86.20;;;;;;2079248;28;20204;-66
2021/07/29 00:25:14;;;;;;;1.13;1.10;;;12.40;86.20;;;;;;2079266;28;20166;-66
2021/07/29 00:26:16;;;;;;;1.60;1.50;;;12.40;86.40;;;;;;2079147;28;20173;-66
2021/07/29 00:27:16;;;;;;;1.05;1.05;;;12.30;86.50;;;;;;2079126;28;20640;-65
2021/07/29 00:28:17;;;;;;;1.43;1.10;;;12.30;86.50;;;;;;2079825;28;20181;-65
2021/07/29 00:29:18;;;;;;;1.23;0.87;;;12.30;86.60;;;;;;2079592;28;20173;-65
2021/07/29 00:30:21;;;;;;;1.47;1.07;;;12.30;86.80;;;;;;2079551;28;20173;-65
2021/07/29 00:31:32;;;;;;;0.80;0.80;;;12.20;87.10;;;;;;2079540;28;20327;-65
2021/07/29 00:32:33;;;;;;;2.92;1.67;;;12.30;86.90;;;;;;2079106;28;20162;-65
2021/07/29 00:33:34;;;;;;;1.02;0.98;;;12.20;87.10;;;;;;2083637;28;20176;-66
2021/07/29 00:34:35;;;;;;;1.23;1.23;;;12.20;87.20;;;;;;2087770;28;20647;-64
2021/07/29 00:35:35;;;;;;;1.87;1.53;;;12.20;87.20;;;;;;2087693;28;20263;-65
2021/07/29 00:36:36;;;;;;;3.03;1.60;;;12.20;87.20;;;;;;2087788;28;20268;-65
2021/07/29 00:37:37;;;;;;;1.87;1.50;;;12.20;87.10;;;;;;2087747;28;20204;-65
2021/07/29 00:38:37;;;;;;;1.33;1.23;;;12.20;87.20;;;;;;2087047;28;20219;-64
2021/07/29 00:39:38;;;;;;;1.20;1.10;;;12.20;87.20;;;;;;2087017;28;20207;-65
2021/07/29 00:40:39;;;;;;;1.63;1.50;;;12.10;87.70;;;;;;2087524;28;20208;-65
2021/07/29 00:41:40;;;;;;;0.97;0.87;;;12.10;87.80;;;;;;2087733;28;20247;-65
2021/07/29 00:42:40;;;;;;;0.67;0.67;;;12.10;87.60;;;;;;2088046;28;20183;-66
2021/07/29 00:43:42;;;;;;;1.47;1.37;;;12.10;87.60;;;;;;2087655;28;20663;-65
2021/07/29 00:44:42;;;;;;;1.63;0.90;;;12.10;87.50;;;;;;2078937;28;20211;-65
2021/07/29 00:45:45;;;;;;;1.30;1.20;;;12.10;87.40;;;;;;2078749;28;20176;-65
2021/07/29 00:46:46;;;;;;;1.38;1.17;;;12.10;87.60;;;;;;2087743;28;20184;-66
2021/07/29 00:47:47;;;;;;;1.97;1.83;;;12.10;87.50;;;;;;2086870;28;20258;-65
2021/07/29 00:48:48;;;;;;;1.35;1.25;;;12.10;87.70;;;;;;2084430;28;20685;-65
2021/07/29 00:49:49;;;;;;;1.53;1.27;;;12.10;87.50;;;;;;2078717;28;20235;-66
2021/07/29 00:50:50;;;;;;;1.23;1.10;;;12.10;87.80;;;;;;2077981;28;20271;-65
2021/07/29 00:51:51;;;;;;;1.33;1.17;;;12.00;87.90;;;;;;2078845;28;20181;-66
2021/07/29 00:52:52;;;;;;;1.70;1.60;;;12.00;87.90;;;;;;2078335;28;20260;-65
2021/07/29 00:53:53;;;;;;;1.03;1.00;;;12.00;87.90;;;;;;2069897;28;20859;-65
2021/07/29 00:54:54;;;;;;;1.15;1.13;;;11.90;87.90;;;;;;2078050;28;20619;-66
2021/07/29 00:55:56;;;;;;;1.60;1.27;;;11.90;88.00;;;;;;2078021;28;20181;-66
2021/07/29 00:56:59;;;;;;;1.02;1.02;;;11.90;88.10;;;;;;2070014;28;20851;-66
2021/07/29 00:58:00;;;;;;;2.30;1.25;;;11.90;88.00;;;;;;2070420;28;20185;-65
2021/07/29 00:59:00;;;;;;;0.80;0.80;;;11.90;88.00;;;;;;2070127;28;20170;-66
2021/07/29 01:00:03;;;;;;;1.37;1.23;;;11.90;88.20;;;;;;2069963;28;20177;-66
2021/07/29 01:01:03;;;;;;;0.60;0.60;;;11.90;88.20;;;;;;2070277;28;20209;-66
2021/07/29 01:02:04;;;;;;;2.00;1.03;;;11.90;88.20;;;;;;2068123;28;20208;-66
2021/07/29 01:03:05;;;;;;;1.30;1.20;;;11.90;88.10;;;;;;2072655;28;20197;-66
2021/07/29 01:04:05;;;;;;;0.60;0.60;;;11.90;88.10;;;;;;2073314;28;20220;-66
2021/07/29 01:05:07;;;;;;;1.00;1.00;;;11.90;88.00;;;;;;2073498;28;20194;-66
2021/07/29 01:06:08;;;;;;;1.55;1.17;;;11.90;88.00;;;;;;2073243;28;20181;-65
2021/07/29 01:07:08;;;;;;;0.60;0.60;;;11.90;88.20;;;;;;2072970;28;20449;-65
2021/07/29 01:08:10;;;;;;;0.73;0.73;;;11.90;88.20;;;;;;2065176;28;20229;-65
2021/07/29 01:09:11;;;;;;;1.00;1.00;;;11.90;87.80;;;;;;2065238;28;20183;-65
2021/07/29 01:10:12;;;;;;;1.20;1.00;;;11.90;87.80;;;;;;2073230;28;20583;-65
2021/07/29 01:11:12;;;;;;;1.50;1.40;;;11.90;87.60;;;;;;2073170;28;20213;-65
2021/07/29 01:12:13;;;;;;;1.60;1.50;;;11.90;87.70;;;;;;2073222;28;20174;-66
2021/07/29 01:13:14;;;;;;;0.93;0.93;;;11.90;87.70;;;;;;2073112;28;20257;-65
2021/07/29 01:14:15;;;;;;;1.43;0.93;;;11.90;87.90;;;;;;2073330;28;20166;-65
2021/07/29 01:15:15;;;;;;;1.30;1.23;;;11.80;88.20;;;;;;2073939;28;20174;-65
2021/07/29 01:16:16;;;;;;;1.40;1.30;;;11.80;88.50;;;;;;2073314;28;20206;-65
2021/07/29 01:17:17;;;;;;;0.93;0.90;;;11.80;88.50;;;;;;2073037;28;20176;-66
2021/07/29 01:18:18;;;;;;;0.52;0.52;;;11.80;88.60;;;;;;2073718;28;20629;-65
2021/07/29 01:19:21;;;;;;;1.00;0.93;;;11.80;88.70;;;;;;2073057;28;20162;-65
2021/07/29 01:20:22;;;;;;;1.30;1.20;;;11.80;88.80;;;;;;2066217;28;20241;-65
2021/07/29 01:21:26;;;;;;;1.27;0.90;;;11.80;88.80;;;;;;2065586;28;20249;-65
2021/07/29 01:22:36;;;;;;;1.27;1.20;;;11.80;89.00;;;;;;2073623;28;20653;-65
2021/07/29 01:23:36;;;;;;;1.67;1.40;;;11.80;88.80;;;;;;2065254;28;20187;-65
2021/07/29 01:24:37;;;;;;;1.27;1.13;;;11.80;88.70;;;;;;2065460;28;20214;-65
2021/07/29 01:25:37;;;;;;;1.27;1.17;;;11.80;88.80;;;;;;2073883;28;20225;-65
2021/07/29 01:26:38;;;;;;;1.07;1.00;;;11.80;88.80;;;;;;2073785;28;20663;-66
2021/07/29 01:27:39;;;;;;;1.27;1.07;;;11.80;89.00;;;;;;2073580;28;20571;-66
2021/07/29 01:28:40;;;;;;;1.27;0.90;;;11.80;89.00;;;;;;2073803;28;20177;-66
2021/07/29 01:29:40;;;;;;;0.60;0.60;;;11.80;89.10;;;;;;2073647;28;20170;-66
2021/07/29 01:30:41;;;;;;;1.43;1.33;;;11.80;89.00;;;;;;2072982;28;20201;-66
2021/07/29 01:31:42;;;;;;;1.57;1.03;;;11.80;89.00;;;;;;2073094;28;20233;-66
2021/07/29 01:32:42;;;;;;;1.33;1.23;;;11.70;89.30;;;;;;2073881;28;20671;-66
2021/07/29 01:33:43;;;;;;;3.43;1.03;;;11.70;89.50;;;;;;2073759;28;20236;-66
2021/07/29 01:34:44;;;;;;;2.35;1.65;;;11.70;89.80;;;;;;2073657;28;20185;-66
2021/07/29 01:35:45;;;;;;;0.63;0.63;;;11.70;90.40;;;;;;2073670;28;20193;-65
2021/07/29 01:36:46;;;;;;;0.93;0.93;;;11.70;89.80;;;;;;2073853;28;20174;-65
2021/07/29 01:37:46;;;;;;;0.77;0.77;;;11.70;89.80;;;;;;2072898;28;20645;-66
2021/07/29 01:38:47;;;;;;;2.20;1.17;;;11.70;89.80;;;;;;2073183;28;20476;-66
2021/07/29 01:39:48;;;;;;;1.47;1.37;;;11.70;89.80;;;;;;2073390;28;20545;-66
2021/07/29 01:40:48;;;;;;;0.63;0.63;;;11.70;89.50;;;;;;2073676;28;20202;-66
2021/07/29 01:41:49;;;;;;;0.93;0.87;;;11.70;89.70;;;;;;2073648;28;20174;-66
2021/07/29 01:42:50;;;;;;;0.97;0.97;;;11.70;89.90;;;;;;2073701;28;20591;-66
2021/07/29 01:43:50;;;;;;;1.80;1.23;;;11.70;90.00;;;;;;2073610;28;20192;-66
2021/07/29 01:44:51;;;;;;;1.10;1.00;;;11.70;90.00;;;;;;2073668;28;20236;-66
2021/07/29 01:45:52;;;;;;;1.20;1.17;;;11.70;90.30;;;;;;2072893;28;20192;-66
2021/07/29 01:46:52;;;;;;;1.30;1.23;;;11.70;90.20;;;;;;2072869;28;20189;-65
2021/07/29 01:47:53;;;;;;;1.43;1.07;;;11.70;90.00;;;;;;2073567;28;20557;-65
2021/07/29 01:48:54;;;;;;;0.67;0.67;;;11.60;89.60;;;;;;2073598;28;20182;-66
2021/07/29 01:49:54;;;;;;;0.80;0.80;;;11.70;89.70;;;;;;2072830;28;20185;-66
2021/07/29 01:50:55;;;;;;;0.90;0.90;;;11.70;89.70;;;;;;2072718;28;20209;-66
2021/07/29 01:51:56;;;;;;;1.30;1.20;;;11.70;90.10;;;;;;2073548;28;20277;-66
2021/07/29 01:52:57;;;;;;;0.83;0.83;;;11.70;90.30;;;;;;2073609;28;20204;-66
2021/07/29 01:53:58;;;;;;;1.55;1.20;;;11.60;90.10;;;;;;2073593;28;20177;-66
2021/07/29 01:55:00;;;;;;;0.90;0.80;;;11.60;90.00;;;;;;2072910;28;20190;-66
2021/07/29 01:56:00;;;;;;;1.40;1.30;;;11.70;90.00;;;;;;2072825;28;20263;-66
2021/07/29 01:57:04;;;;;;;1.00;1.00;;;11.60;89.90;;;;;;2073448;28;20247;-66
2021/07/29 01:58:05;;;;;;;0.65;0.65;;;11.60;89.90;;;;;;2072983;28;20182;-66
2021/07/29 01:59:06;;;;;;;1.63;1.17;;;11.60;90.00;;;;;;2073113;28;20205;-66
2021/07/29 02:00:07;;;;;;;0.77;0.77;;;11.60;90.20;;;;;;2073034;28;20201;-66
2021/07/29 02:01:08;;;;;;;0.70;0.70;;;11.50;90.20;;;;;;2064884;28;20210;-66
2021/07/29 02:02:09;;;;;;;1.70;1.60;;;11.60;90.40;;;;;;2073041;28;20194;-66
2021/07/29 02:03:10;;;;;;;1.20;1.10;;;11.60;90.40;;;;;;2072837;28;20216;-66
2021/07/29 02:04:11;;;;;;;1.55;0.63;;;11.60;90.30;;;;;;2070919;28;20174;-66
2021/07/29 02:05:11;;;;;;;0.77;0.77;;;11.60;90.20;;;;;;2077102;28;20176;-66
2021/07/29 02:06:12;;;;;;;0.63;0.63;;;11.60;90.10;;;;;;2080956;28;20280;-66
2021/07/29 02:07:13;;;;;;;1.23;1.13;;;11.60;90.00;;;;;;2072815;28;20197;-66
2021/07/29 02:08:13;;;;;;;1.57;1.47;;;11.60;90.00;;;;;;2081212;28;20198;-66
2021/07/29 02:09:14;;;;;;;0.97;0.97;;;11.60;90.00;;;;;;2081113;28;20620;-66
2021/07/29 02:10:15;;;;;;;1.67;1.30;;;11.60;90.00;;;;;;2081183;28;20170;-66
2021/07/29 02:11:16;;;;;;;0.80;0.80;;;11.50;89.90;;;;;;2081140;28;20216;-66
2021/07/29 02:12:16;;;;;;;1.00;1.00;;;11.60;90.00;;;;;;2081115;28;20577;-65
2021/07/29 02:13:17;;;;;;;1.23;0.60;;;11.60;89.90;;;;;;2081851;28;20565;-65
2021/07/29 02:14:19;;;;;;;1.67;1.17;;;11.50;89.90;;;;;;2080667;28;20169;-66
2021/07/29 02:15:20;;;;;;;1.05;0.95;;;11.50;89.90;;;;;;2081685;28;20220;-66
2021/07/29 02:16:21;;;;;;;1.00;1.00;;;11.50;89.70;;;;;;2081620;28;20916;-66
2021/07/29 02:17:22;;;;;;;1.00;1.00;;;11.50;89.70;;;;;;2080858;28;20189;-66
2021/07/29 02:18:22;;;;;;;1.37;1.27;;;11.50;89.60;;;;;;2080860;28;20173;-66
2021/07/29 02:19:23;;;;;;;1.50;1.40;;;11.60;89.70;;;;;;2081490;28;20173;-66
2021/07/29 02:20:25;;;;;;;1.13;1.03;;;11.50;89.80;;;;;;2080977;28;20173;-66
2021/07/29 02:21:26;;;;;;;1.00;1.00;;;11.50;89.70;;;;;;2072791;28;20194;-65
2021/07/29 02:22:26;;;;;;;1.27;1.25;;;11.50;89.80;;;;;;2072670;28;20174;-65
2021/07/29 02:23:27;;;;;;;1.57;1.23;;;11.50;89.80;;;;;;2080904;28;20177;-66
2021/07/29 02:24:28;;;;;;;1.27;1.23;;;11.60;89.60;;;;;;2081635;28;20177;-65
2021/07/29 02:25:28;;;;;;;1.30;1.20;;;11.50;89.20;;;;;;2081433;28;20181;-66
2021/07/29 02:26:29;;;;;;;2.53;1.97;;;11.50;90.10;;;;;;2081634;28;20691;-66
2021/07/29 02:27:30;;;;;;;1.47;1.40;;;11.50;89.20;;;;;;2072539;28;20224;-66
2021/07/29 02:28:31;;;;;;;1.47;1.30;;;11.40;89.10;;;;;;2072635;28;20256;-66
2021/07/29 02:29:31;;;;;;;2.30;1.10;;;11.50;89.00;;;;;;2081421;28;20185;-66
2021/07/29 02:30:32;;;;;;;2.63;1.60;;;11.50;88.80;;;;;;2080725;28;20193;-66
2021/07/29 02:31:33;;;;;;;2.57;1.83;;;11.50;88.90;;;;;;2080789;28;20231;-66
2021/07/29 02:32:34;;;;;;;0.90;0.90;;;11.40;88.80;;;;;;2081461;28;20173;-65
2021/07/29 02:33:36;;;;;;;1.50;1.40;;;11.40;88.80;;;;;;2081212;28;20181;-66
2021/07/29 02:34:36;;;;;;;0.98;0.98;;;11.40;89.20;;;;;;2077043;28;20553;-66
2021/07/29 02:35:37;;;;;;;1.10;1.10;;;11.40;89.30;;;;;;2072588;28;20240;-66
2021/07/29 02:36:38;;;;;;;1.77;1.67;;;11.30;89.40;;;;;;2072718;28;20628;-66
2021/07/29 02:37:39;;;;;;;1.03;1.03;;;11.30;89.30;;;;;;2072428;28;20178;-67
2021/07/29 02:38:40;;;;;;;1.23;0.93;;;11.30;89.40;;;;;;2072608;28;20698;-66
2021/07/29 02:39:41;;;;;;;0.47;0.47;;;11.30;89.30;;;;;;2073196;28;20178;-66
2021/07/29 02:40:43;;;;;;;1.83;1.47;;;11.30;89.40;;;;;;2073167;28;20185;-67
2021/07/29 02:41:43;;;;;;;0.65;0.65;;;11.30;89.50;;;;;;2064486;28;20276;-66
2021/07/29 02:42:44;;;;;;;1.53;1.43;;;11.30;89.50;;;;;;2064653;28;20538;-66
2021/07/29 02:43:45;;;;;;;1.13;1.00;;;11.30;89.50;;;;;;2073119;28;20187;-66
2021/07/29 02:44:46;;;;;;;1.45;1.35;;;11.30;89.60;;;;;;2073260;28;20197;-66
2021/07/29 02:45:47;;;;;;;1.07;1.07;;;11.30;90.30;;;;;;2073167;28;20232;-66
2021/07/29 02:46:47;;;;;;;2.63;0.73;;;11.30;89.60;;;;;;2072613;28;20188;-65
2021/07/29 02:47:48;;;;;;;2.73;1.10;;;11.30;89.50;;;;;;2064521;28;20185;-65
2021/07/29 02:48:49;;;;;;;1.63;1.30;;;11.30;89.60;;;;;;2072622;28;20671;-66
2021/07/29 02:49:49;;;;;;;1.50;1.23;;;11.30;89.80;;;;;;2073102;28;20236;-66
2021/07/29 02:50:55;;;;;;;1.80;0.97;;;11.30;89.90;;;;;;2072990;28;20220;-66
2021/07/29 02:51:56;;;;;;;3.25;1.17;;;11.30;89.80;;;;;;2072536;28;20197;-66
2021/07/29 02:52:57;;;;;;;1.17;0.80;;;11.30;89.60;;;;;;2072556;28;20727;-66
2021/07/29 02:53:57;;;;;;;1.20;1.17;;;11.40;89.60;;;;;;2072488;28;20173;-66
2021/07/29 02:54:58;;;;;;;0.73;0.73;;;11.40;89.50;;;;;;2064478;28;20630;-66
2021/07/29 02:55:59;;;;;;;0.60;0.60;;;11.40;89.70;;;;;;2072490;28;20174;-66
2021/07/29 02:57:00;;;;;;;0.80;0.80;;;11.40;89.60;;;;;;2072417;28;20220;-67
2021/07/29 02:58:01;;;;;;;1.17;0.90;;;11.40;89.60;;;;;;2072549;28;20260;-66
2021/07/29 02:59:02;;;;;;;1.17;1.13;;;11.40;89.50;;;;;;2073064;28;20169;-66
2021/07/29 03:00:05;;;;;;;1.10;1.00;;;11.40;89.20;;;;;;2073252;28;20170;-66
2021/07/29 03:01:05;;;;;;;1.73;1.63;;;11.40;89.20;;;;;;2072938;28;20205;-66
2021/07/29 03:02:06;;;;;;;1.70;1.30;;;11.40;89.40;;;;;;2072408;28;20259;-66
2021/07/29 03:03:07;;;;;;;1.17;1.10;;;11.50;89.60;;;;;;2064227;28;20175;-66
2021/07/29 03:04:07;;;;;;;0.97;0.97;;;11.50;89.60;;;;;;2064375;28;20678;-66
2021/07/29 03:05:09;;;;;;;0.90;0.90;;;11.50;89.40;;;;;;2072566;28;20208;-66
2021/07/29 03:06:10;;;;;;;0.63;0.63;;;11.50;89.30;;;;;;2073130;28;20177;-66
2021/07/29 03:07:11;;;;;;;0.90;0.90;;;11.50;89.30;;;;;;2072869;28;20253;-66
2021/07/29 03:08:12;;;;;;;1.70;1.60;;;11.60;89.40;;;;;;2073021;28;20245;-66
2021/07/29 03:09:13;;;;;;;0.77;0.77;;;11.60;89.40;;;;;;2064102;28;20197;-66
2021/07/29 03:10:14;;;;;;;1.05;1.00;;;11.60;89.30;;;;;;2064425;28;20177;-66
2021/07/29 03:11:14;;;;;;;1.00;0.90;;;11.70;89.20;;;;;;2072865;28;20696;-66
2021/07/29 03:12:15;;;;;;;1.70;1.43;;;11.60;89.00;;;;;;2073027;28;20234;-66
2021/07/29 03:13:16;;;;;;;0.70;0.70;;;11.60;89.00;;;;;;2073124;28;20185;-68
2021/07/29 03:14:19;;;;;;;1.33;1.20;;;11.60;89.00;;;;;;2073032;28;20614;-66
2021/07/29 03:15:19;;;;;;;1.80;1.17;;;11.70;88.70;;;;;;2072304;28;20182;-66
2021/07/29 03:16:20;;;;;;;0.73;0.73;;;11.70;88.30;;;;;;2072382;28;20169;-66
2021/07/29 03:17:21;;;;;;;0.73;0.73;;;11.80;88.40;;;;;;2072194;28;20169;-66
2021/07/29 03:18:22;;;;;;;0.93;0.83;;;11.70;88.50;;;;;;2064256;28;20677;-66
2021/07/29 03:19:23;;;;;;;1.40;0.93;;;11.80;88.60;;;;;;2072213;28;20416;-66
2021/07/29 03:20:23;;;;;;;1.23;1.10;;;11.80;88.90;;;;;;2072487;28;20239;-66
2021/07/29 03:21:24;;;;;;;1.83;0.87;;;11.80;89.10;;;;;;2064110;28;20194;-66
2021/07/29 03:22:25;;;;;;;0.93;0.93;;;11.80;89.20;;;;;;2064203;28;20174;-66
2021/07/29 03:23:27;;;;;;;1.30;1.30;;;11.80;89.20;;;;;;2064108;28;20185;-66
2021/07/29 03:24:27;;;;;;;1.17;1.08;;;11.80;88.80;;;;;;2064422;28;20175;-66
2021/07/29 03:25:28;;;;;;;1.50;1.20;;;11.80;88.80;;;;;;2072124;28;20216;-66
2021/07/29 03:26:29;;;;;;;1.27;1.03;;;11.70;88.80;;;;;;2072432;28;20189;-66
2021/07/29 03:27:30;;;;;;;0.93;0.93;;;11.70;88.70;;;;;;2063930;28;20229;-66
2021/07/29 03:28:31;;;;;;;2.83;1.03;;;11.80;88.60;;;;;;2072345;28;20636;-66
2021/07/29 03:29:31;;;;;;;0.70;0.70;;;11.80;88.30;;;;;;2072166;28;20185;-66
2021/07/29 03:30:32;;;;;;;0.70;0.70;;;11.80;88.00;;;;;;2072124;28;20499;-66
2021/07/29 03:31:34;;;;;;;0.80;0.80;;;11.80;88.00;;;;;;2072851;28;20720;-66
2021/07/29 03:32:34;;;;;;;0.70;0.70;;;11.80;88.10;;;;;;2073049;28;20181;-66
2021/07/29 03:33:37;;;;;;;3.50;1.63;;;11.90;88.20;;;;;;2072210;28;20201;-66
2021/07/29 03:34:38;;;;;;;0.88;0.88;;;11.90;88.10;;;;;;2064423;28;20225;-66
2021/07/29 03:35:40;;;;;;;0.60;0.60;;;11.80;88.10;;;;;;2072256;28;20185;-66
2021/07/29 03:36:41;;;;;;;0.80;0.80;;;11.80;88.20;;;;;;2072240;28;20193;-66
2021/07/29 03:37:41;;;;;;;0.67;0.67;;;11.80;88.20;;;;;;2071925;28;20209;-66
2021/07/29 03:38:42;;;;;;;0.83;0.83;;;11.80;88.10;;;;;;2072887;28;20181;-66
2021/07/29 03:39:43;;;;;;;0.73;0.73;;;11.80;88.30;;;;;;2072563;28;20593;-66
2021/07/29 03:40:44;;;;;;;1.30;1.20;;;11.70;88.70;;;;;;2072739;28;20192;-66
2021/07/29 03:41:45;;;;;;;1.25;1.15;;;11.70;89.00;;;;;;2072073;28;20181;-66
2021/07/29 03:42:45;;;;;;;1.17;0.90;;;11.70;88.90;;;;;;2072093;28;20548;-66
2021/07/29 03:43:46;;;;;;;1.20;0.87;;;11.70;88.80;;;;;;2072696;28;20177;-66
2021/07/29 03:44:47;;;;;;;1.13;1.03;;;11.60;88.50;;;;;;2072749;28;20289;-66
2021/07/29 03:45:47;;;;;;;0.60;0.60;;;11.60;88.40;;;;;;2072030;28;20196;-66
2021/07/29 03:46:48;;;;;;;1.23;1.10;;;11.60;88.40;;;;;;2055847;28;20669;-65
2021/07/29 03:47:49;;;;;;;1.43;1.33;;;11.50;88.40;;;;;;2063839;28;20594;-66
2021/07/29 03:48:49;;;;;;;1.20;1.10;;;11.50;88.50;;;;;;2071941;28;20189;-66
2021/07/29 03:49:50;;;;;;;1.23;1.13;;;11.50;88.60;;;;;;2072082;28;20208;-66
2021/07/29 03:50:51;;;;;;;0.88;0.68;;;11.50;88.70;;;;;;2071818;28;20711;-66
2021/07/29 03:51:52;;;;;;;0.97;0.97;;;11.50;88.70;;;;;;2072101;28;20182;-66
2021/07/29 03:52:53;;;;;;;2.00;0.87;;;11.50;88.70;;;;;;2071903;28;20181;-66
2021/07/29 03:53:53;;;;;;;0.67;0.67;;;11.50;88.70;;;;;;2063957;28;20182;-66
2021/07/29 03:54:54;;;;;;;0.70;0.70;;;11.40;88.70;;;;;;2072098;28;20267;-66
2021/07/29 03:55:55;;;;;;;0.60;0.60;;;11.40;88.70;;;;;;2064009;28;20178;-66
2021/07/29 03:56:55;;;;;;;1.33;1.23;;;11.40;88.60;;;;;;2071976;28;20178;-66
2021/07/29 03:57:58;;;;;;;0.60;0.60;;;11.40;88.60;;;;;;2072662;28;20756;-66
2021/07/29 03:59:00;;;;;;;0.70;0.70;;;11.40;88.50;;;;;;2072611;28;20655;-66
2021/07/29 04:00:02;;;;;;;0.65;0.65;;;11.40;88.40;;;;;;2072678;28;20185;-66
2021/07/29 04:01:02;;;;;;;0.93;0.77;;;11.40;88.40;;;;;;2071963;28;20272;-66
2021/07/29 04:02:10;;;;;;;2.40;0.93;;;11.40;88.50;;;;;;2072112;28;20248;-66
2021/07/29 04:03:11;;;;;;;0.95;0.95;;;11.40;88.40;;;;;;2072012;28;20177;-66
2021/07/29 04:04:12;;;;;;;2.27;1.17;;;11.40;88.40;;;;;;2063831;28;20261;-66
2021/07/29 04:05:12;;;;;;;1.07;1.07;;;11.40;88.20;;;;;;2063965;28;20308;-68
2021/07/29 04:06:17;;;;;;;1.23;1.20;;;11.40;88.20;;;;;;2071952;28;20664;-66
2021/07/29 04:07:18;;;;;;;0.77;0.70;;;11.40;88.30;;;;;;2071891;28;20166;-66
2021/07/29 04:08:18;;;;;;;0.90;0.90;;;11.40;88.20;;;;;;2064021;28;20171;-66
2021/07/29 04:09:19;;;;;;;0.83;0.80;;;11.40;88.60;;;;;;2064005;28;20225;-66
2021/07/29 04:10:20;;;;;;;1.10;1.00;;;11.40;88.90;;;;;;2072209;28;20166;-66
2021/07/29 04:11:20;;;;;;;1.03;0.63;;;11.40;89.10;;;;;;2072006;28;20210;-66
2021/07/29 04:12:21;;;;;;;0.90;0.90;;;11.40;89.00;;;;;;2072838;28;20260;-66
2021/07/29 04:13:22;;;;;;;1.83;1.03;;;11.30;88.80;;;;;;2072087;28;20261;-66
2021/07/29 04:14:22;;;;;;;1.27;0.87;;;11.30;89.00;;;;;;2072217;28;20859;-66
2021/07/29 04:15:23;;;;;;;1.00;1.00;;;11.30;89.20;;;;;;2072495;28;20257;-66
2021/07/29 04:16:24;;;;;;;0.83;0.83;;;11.40;89.30;;;;;;2072635;28;20178;-66
2021/07/29 04:17:24;;;;;;;0.47;0.47;;;11.30;89.30;;;;;;2072448;28;20176;-66
2021/07/29 04:18:26;;;;;;;1.10;1.10;;;11.40;89.40;;;;;;2072583;28;20170;-66
2021/07/29 04:19:31;;;;;;;1.20;1.08;;;11.40;89.50;;;;;;2072377;28;20713;-66
2021/07/29 04:20:31;;;;;;;1.25;0.90;;;11.50;89.60;;;;;;2071810;28;20186;-66
2021/07/29 04:21:32;;;;;;;0.70;0.70;;;11.50;89.60;;;;;;2063263;28;20171;-66
2021/07/29 04:22:33;;;;;;;0.80;0.80;;;11.50;89.70;;;;;;2071132;28;20680;-66
2021/07/29 04:23:33;;;;;;;1.93;1.27;;;11.50;89.70;;;;;;2072418;28;20181;-66
2021/07/29 04:24:34;;;;;;;1.13;0.93;;;11.60;89.70;;;;;;2072553;28;20236;-66
2021/07/29 04:25:35;;;;;;;0.90;0.70;;;11.70;89.30;;;;;;2071703;28;20181;-66
2021/07/29 04:26:35;;;;;;;6.13;1.43;;;11.70;88.50;;;;;;2071912;28;20588;-66
2021/07/29 04:27:36;;;;;;;0.70;0.70;;;11.70;88.60;;;;;;2072295;28;20170;-66
2021/07/29 04:28:37;;;;;;;0.43;0.43;;;11.60;88.70;;;;;;2072596;28;20177;-66
2021/07/29 04:29:37;;;;;;;0.87;0.87;;;11.60;89.00;;;;;;2072329;28;20173;-66
2021/07/29 04:30:38;;;;;;;1.23;1.10;;;11.60;89.50;;;;;;2072329;28;20590;-66
2021/07/29 04:31:39;;;;;;;1.33;1.23;;;11.60;89.60;;;;;;2072324;28;20193;-66
2021/07/29 04:32:40;;;;;;;1.05;0.70;;;11.70;89.70;;;;;;2072396;28;20184;-66
2021/07/29 04:33:40;;;;;;;0.70;0.70;;;11.80;89.50;;;;;;2071801;28;20522;-66
2021/07/29 04:34:41;;;;;;;1.00;1.00;;;11.90;89.30;;;;;;2071815;28;20178;-66
2021/07/29 04:35:42;;;;;;;1.87;0.90;;;12.00;89.30;;;;;;2071819;28;20271;-66
2021/07/29 04:36:43;;;;;;;0.90;0.90;;;12.00;89.20;;;;;;2071704;28;20558;-66
2021/07/29 04:37:43;;;;;;;0.50;0.50;;;12.10;89.50;;;;;;2075015;28;20205;-66
2021/07/29 04:38:44;;;;;;;0.70;0.67;;;12.10;89.30;;;;;;2065234;28;20175;-66
2021/07/29 04:39:45;;;;;;;0.80;0.80;;;12.10;89.00;;;;;;2073311;28;20730;-66
2021/07/29 04:40:45;;;;;;;1.33;1.23;;;12.20;88.70;;;;;;2073160;28;20237;-66
2021/07/29 04:41:46;;;;;;;1.53;1.43;;;12.20;88.70;;;;;;2073303;28;20256;-65
2021/07/29 04:42:47;;;;;;;1.53;1.20;;;12.30;88.60;;;;;;2073262;28;20289;-65
2021/07/29 04:43:47;;;;;;;0.53;0.53;;;12.30;88.40;;;;;;2073268;28;20240;-66
2021/07/29 04:44:48;;;;;;;0.83;0.83;;;12.30;88.50;;;;;;2073228;28;20177;-65
2021/07/29 04:45:48;;;;;;;0.70;0.70;;;12.40;88.40;;;;;;2073289;28;20178;-66
2021/07/29 04:46:49;;;;;;;1.60;1.50;;;12.40;88.30;;;;;;2073121;28;20590;-66
2021/07/29 04:47:51;;;;;;;1.63;1.47;;;12.50;88.30;;;;;;2073216;28;20187;-66
2021/07/29 04:48:52;;;;;;;0.60;0.60;;;12.50;88.30;;;;;;2073800;28;20189;-66
2021/07/29 04:49:52;;;;;;;0.80;0.80;;;12.60;88.30;;;;;;2073789;28;20837;-66
2021/07/29 04:50:53;;;;;;;1.03;1.03;;;12.60;88.20;;;;;;2073562;28;20267;-66
2021/07/29 04:51:54;;;;;;;1.50;1.40;;;12.60;87.90;;;;;;2073874;28;20182;-66
2021/07/29 04:52:54;;;;;;;1.27;1.17;;;12.50;87.90;;;;;;2073756;28;20260;-66
2021/07/29 04:53:55;;;;;;;0.80;0.80;;;12.50;88.00;;;;;;2073862;28;20206;-66
2021/07/29 04:54:56;;;;;;;4.33;1.33;;;12.60;88.00;;;;;;2073745;28;20177;-66
2021/07/29 04:55:56;;;;;;;1.90;1.03;;;12.60;87.80;;;;;;2069954;28;20262;-66
2021/07/29 04:56:57;;;;;;;1.23;1.13;;;12.80;87.60;;;;;;2070677;28;20323;-66
2021/07/29 04:58:03;;;;;;;0.47;0.47;;;12.70;87.50;;;;;;2072976;28;20260;-66
2021/07/29 04:59:03;;;;;;;1.10;1.10;;;12.70;87.50;;;;;;2065517;28;20285;-66
2021/07/29 05:00:05;;;;;;;0.83;0.70;;;12.80;87.90;;;;;;2073105;28;20216;-66
2021/07/29 05:01:06;;;;;;;1.15;1.05;;;12.90;87.70;;;;;;2064799;28;20854;-66
2021/07/29 05:02:07;;;;;;;1.13;1.00;;;12.90;87.60;;;;;;2064999;28;20171;-66
2021/07/29 05:03:08;;;;;;;1.05;1.00;;;13.00;87.80;;;;;;2065430;28;20257;-66
2021/07/29 05:04:10;;;;;;;0.87;0.87;;;13.00;87.80;;;;;;2065584;28;20204;-66
2021/07/29 05:05:12;;;;;;;1.33;1.20;;;13.00;87.80;;;;;;2065417;28;20175;-66
2021/07/29 05:06:13;;;;;;;0.73;0.73;;;13.10;87.50;;;;;;2065006;28;20162;-66
2021/07/29 05:07:13;;;;;;;1.50;1.35;;;13.20;87.00;;;;;;2056780;28;20183;-66
2021/07/29 05:08:14;;;;;;;1.43;0.90;;;13.10;86.80;;;;;;2065007;28;20174;-66
2021/07/29 05:09:15;;;;;;;0.97;0.97;;;13.00;86.90;;;;;;2065297;28;20203;-66
2021/07/29 05:10:15;;;;;;;1.27;1.17;;;13.00;87.10;;;;;;2064907;28;20674;-66
2021/07/29 05:11:16;;;;;;;1.20;0.80;;;13.00;87.60;;;;;;2064725;28;20285;-66
2021/07/29 05:12:17;;;;;;;1.27;0.73;;;13.00;87.70;;;;;;2065420;28;20179;-66
2021/07/29 05:13:17;;;;;;;0.80;0.80;;;13.00;87.40;;;;;;2065378;28;20232;-66
2021/07/29 05:14:18;;;;;;;1.90;1.13;;;13.00;87.40;;;;;;2065332;28;20265;-66
2021/07/29 05:15:19;;;;;;;1.90;1.53;;;13.00;87.30;;;;;;2065546;28;20731;-66
2021/07/29 05:16:20;;;;;;;1.77;1.07;;;12.90;87.40;;;;;;2065341;28;20229;-66
2021/07/29 05:17:20;;;;;;;1.80;1.43;;;12.90;87.50;;;;;;2072849;28;20266;-66
2021/07/29 05:18:21;;;;;;;1.03;1.03;;;13.00;87.60;;;;;;2072875;28;20548;-66
2021/07/29 05:19:22;;;;;;;1.13;1.03;;;13.00;87.60;;;;;;2064622;28;20270;-66